Flight Track Log - Related Links

Times and Time Zones

All times are in EDT time to prevent confusion due to time zone crossing. See the CTL4 flight status page for this flight to view local times or setup timezone preferences in your user account.


Time Position Orientation Groundspeed Altitude Reporting Facility
EDT Latitude Longitude Course Direction KTS MPH feet Rate Location/Type
Tue 02:27:09 AM 26.7564 -80.2394 299° West 147 169 2,200  Level Miami Center
Tue 02:28:09 AM 26.7761 -80.2817 298° West 151 174 2,700 541 Climbing Miami Center
Tue 02:29:11 AM 26.7978 -80.3225 301° West 151 174 3,300 595 Climbing Miami Center
Tue 02:30:00 AM 26.6590 -80.3812 265° West  Level FlightAware Approximate
Tue 02:30:10 AM 26.8208 -80.3628 303° West 150 173 3,900  Level Miami Center
Tue 02:31:00 AM 26.6550 -80.4307 265° West  Level FlightAware Approximate
Tue 02:31:11 AM 26.8353 -80.3906 300° West 147 169 4,300  Level Miami Center
Tue 02:32:12 AM 26.8586 -80.4375 299° West 146 168 4,800 555 Climbing Miami Center
Tue 02:33:10 AM 26.8781 -80.4789 298° West 145 167 5,400 504 Climbing Miami Center
Tue 02:34:11 AM 26.8972 -80.5178 299° West 145 167 5,800 293 Climbing Miami Center
Tue 02:35:13 AM 26.9217 -80.5594 303° West 150 173 6,000 99 Climbing Miami Center
Tue 02:36:12 AM 26.9461 -80.6033 302° West 168 193 6,000  Level Miami Center
Tue 02:37:11 AM 26.9703 -80.6511 300° West 169 194 6,000  Level Miami Center
Tue 02:38:11 AM 26.9969 -80.6928 306° West 170 196 6,000  Level Miami Center
Tue 02:39:13 AM 27.0258 -80.7381 306° West 170 196 6,000  Level Miami Center
Tue 02:40:12 AM 27.0511 -80.7800 304° West 170 196 6,000  Level Miami Center
Tue 02:41:12 AM 27.0725 -80.8292 296° West 169 194 6,000  Level Miami Center
Tue 02:42:15 AM 27.0992 -80.8706 306° West 169 194 6,000  Level Miami Center
Tue 02:43:14 AM 27.1272 -80.9147 306° West 169 194 6,000  Level Miami Center
Tue 02:44:15 AM 27.1486 -80.9594 298° West 169 194 6,000  Level Miami Center
Tue 02:45:13 AM 27.1758 -80.9992 308° West 164 189 6,000  Level Miami Center
Tue 02:46:13 AM 27.1992 -81.0453 300° West 164 189 6,000  Level Miami Center
Tue 02:47:13 AM 27.2253 -81.0853 306° West 164 189 6,000  Level Miami Center
Tue 02:48:13 AM 27.2492 -81.1322 300° West 164 189 6,000  Level Miami Center
Tue 02:49:13 AM 27.2714 -81.1747 300° West 164 189 6,000  Level Miami Center
Tue 02:50:14 AM 27.2964 -81.2206 302° West 164 189 6,000  Level Miami Center
Tue 02:51:14 AM 27.3175 -81.2639 299° West 164 189 6,000  Level Miami Center
Tue 02:52:14 AM 27.3406 -81.3103 299° West 164 189 6,000  Level Miami Center
Tue 02:53:14 AM 27.3667 -81.3494 307° West 163 188 6,000  Level Miami Center
Tue 02:54:14 AM 27.3894 -81.3875 304° West 162 186 6,000  Level Miami Center
Tue 02:55:17 AM 27.4100 -81.4325 297° West 162 186 6,000  Level Miami Center
Tue 02:56:15 AM 27.4306 -81.4764 298° West 162 186 6,000  Level Miami Center
Tue 02:57:15 AM 27.4561 -81.5186 304° West 162 186 6,000  Level Miami Center
Tue 02:58:15 AM 27.4769 -81.5633 298° West 162 186 6,000 49 Level Miami Center
Tue 02:59:17 AM 27.5003 -81.6075 301° West 164 189 6,100  Climbing Miami Center
Tue 03:00:16 AM 27.5225 -81.6514 300° West 164 189 6,000 -50 Descending Miami Center
Tue 03:01:17 AM 27.5439 -81.6958 298° West 164 189 6,000  Level Miami Center
Tue 03:02:17 AM 27.5667 -81.7400 300° West 163 188 6,000 50 Level Miami Center
Tue 03:03:17 AM 27.5900 -81.7839 301° West 163 188 6,100  Climbing Miami Center
Tue 03:04:19 AM 27.6122 -81.8281 300° West 163 188 6,000 -50 Descending Miami Center
Tue 03:05:18 AM 27.6364 -81.8703 303° West 161 185 6,000 51 Level Miami Center
Tue 03:06:17 AM 27.6583 -81.9144 299° West 161 185 6,100  Climbing Miami Center
Tue 03:07:19 AM 27.6797 -81.9594 298° West 161 185 6,000 -50 Descending Miami Center
Tue 03:08:17 AM 27.7047 -82.0100 299° West 162 186 6,000  Level Miami Center
Tue 03:09:18 AM 27.7267 -82.0536 300° West 162 186 6,000  Level Miami Center
Tue 03:10:20 AM 27.7475 -82.0978 298° West 162 186 6,000 -50 Level Miami Center
Tue 03:11:18 AM 27.7697 -82.1419 300° West 162 186 5,900 -353 Descending Miami Center
Tue 03:12:19 AM 27.7931 -82.1908 298° West 172 198 5,300 -600 Descending Miami Center
Tue 03:13:18 AM 27.8181 -82.2408 299° West 179 206 4,700 -768 Descending Miami Center
Tue 03:14:24 AM 27.8500 -82.3000 301° West 195 224 3,700 -898 Descending Tampa TRACON
Tue 03:15:25 AM 27.8667 -82.3500 291° West 192 221 2,800 -942 Descending Tampa TRACON
Tue 03:16:25 AM 27.9000 -82.4167 300° West 185 213 1,800 -1,000 Descending Tampa TRACON
Tue 03:17:25 AM 27.9333 -82.4500 319° Northwest 184 212 800 -600 Descending Tampa TRACON
Tue 03:18:25 AM 27.9667 -82.4833 319° Northwest 149 171 600 -200 Descending Tampa TRACON
Tue 03:21:00 AM 27.9667 -82.5167 300° West  Level FlightAware Approximate

Login

Don't have an account? Register now (free) for customized features, flight alerts, and more!